Time;durP1;ratioP1;P1;durP2;ratioP2;P2;SDS_P1;SDS_P2;PMS_P1;PMS_P2;Temp;Humidity;BMP_temperature;BMP_pressure;BME280_temperature;BME280_humidity;BME280_pressure;Samples;Min_cycle;Max_cycle;Signal;HPM_P1;HPM_P2
2021/03/02 00:00:10;;;;;;;48.10;20.17;;;2.80;99.90;;;;;;5055043;28;20678;-85
2021/03/02 00:02:39;;;;;;;56.53;24.70;;;2.80;99.90;;;;;;5020065;28;20238;-85
2021/03/02 00:05:06;;;;;;;59.40;24.43;;;2.90;99.90;;;;;;5054627;28;20179;-85
2021/03/02 00:07:32;;;;;;;58.20;23.20;;;2.70;99.90;;;;;;5054302;28;20288;-85
2021/03/02 00:09:59;;;;;;;37.43;15.33;;;2.70;99.90;;;;;;5054184;28;20197;-85
2021/03/02 00:12:26;;;;;;;53.93;22.60;;;2.70;99.90;;;;;;5036462;28;20199;-85
2021/03/02 00:14:53;;;;;;;63.33;24.83;;;3.70;99.90;;;;;;5054574;28;20635;-85
2021/03/02 00:17:40;;;;;;;58.63;23.20;;;2.90;99.90;;;;;;5054423;28;20235;-85
2021/03/02 00:20:10;;;;;;;42.13;16.47;;;2.70;99.90;;;;;;5054221;28;20165;-85
2021/03/02 00:23:00;;;;;;;59.37;23.67;;;2.70;99.90;;;;;;5053668;28;20626;-85
2021/03/02 00:25:28;;;;;;;55.83;22.57;;;2.70;99.90;;;;;;5054206;28;20299;-85
2021/03/02 00:27:56;;;;;;;64.40;24.17;;;2.80;99.90;;;;;;5054063;28;20172;-85
2021/03/02 00:30:22;;;;;;;57.43;22.17;;;2.80;99.90;;;;;;5054061;28;20695;-85
2021/03/02 00:32:48;;;;;;;61.70;24.53;;;2.70;99.90;;;;;;5054024;28;20321;-85
2021/03/02 00:35:14;;;;;;;60.47;23.20;;;2.70;99.90;;;;;;5054316;28;20653;-85
2021/03/02 00:37:40;;;;;;;56.87;22.07;;;2.80;99.90;;;;;;5036069;28;20215;-85
2021/03/02 00:40:07;;;;;;;57.37;22.67;;;2.80;99.90;;;;;;5036349;28;20210;-85
2021/03/02 00:42:33;;;;;;;54.13;19.23;;;2.60;99.90;;;;;;5035900;28;20184;-86
2021/03/02 00:44:58;;;;;;;60.33;24.77;;;3.10;99.90;;;;;;5053633;28;20183;-85
2021/03/02 00:47:24;;;;;;;55.90;22.53;;;2.60;99.90;;;;;;5053585;28;20233;-85
2021/03/02 00:49:50;;;;;;;65.43;23.10;;;2.90;99.90;;;;;;5053730;28;20254;-85
2021/03/02 00:52:16;;;;;;;57.50;21.80;;;3.00;99.90;;;;;;5053864;28;20573;-85
2021/03/02 00:54:42;;;;;;;59.20;23.50;;;2.90;99.90;;;;;;5053467;28;20520;-85
2021/03/02 00:57:08;;;;;;;69.13;24.03;;;4.10;99.90;;;;;;5053529;28;20199;-86
2021/03/02 00:59:33;;;;;;;65.97;24.03;;;2.50;99.90;;;;;;5053275;28;20267;-85
2021/03/02 01:01:59;;;;;;;56.63;22.17;;;3.90;99.90;;;;;;5053456;28;20176;-85
2021/03/02 01:04:25;;;;;;;64.20;22.60;;;2.90;99.90;;;;;;5053828;28;20628;-85
2021/03/02 01:06:50;;;;;;;67.83;23.93;;;2.70;99.90;;;;;;5053190;28;20183;-85
2021/03/02 01:09:17;;;;;;;62.47;24.87;;;2.50;99.90;;;;;;5035907;28;20532;-85
2021/03/02 01:11:42;;;;;;;51.90;21.23;;;3.60;99.90;;;;;;5052985;28;20254;-86
2021/03/02 01:14:08;;;;;;;70.03;24.80;;;2.40;99.90;;;;;;5053403;28;20212;-86
2021/03/02 01:16:34;;;;;;;56.70;23.00;;;2.40;99.90;;;;;;5035294;28;20621;-85
2021/03/02 01:18:59;;;;;;;60.97;23.70;;;2.50;99.90;;;;;;5035739;28;20183;-86
2021/03/02 01:21:25;;;;;;;64.07;23.73;;;2.50;99.90;;;;;;5053320;28;20222;-86
2021/03/02 01:23:51;;;;;;;57.70;21.50;;;2.60;99.90;;;;;;5035347;28;20644;-86
2021/03/02 01:26:17;;;;;;;53.13;23.20;;;2.60;99.90;;;;;;5035759;28;20650;-86
2021/03/02 01:28:42;;;;;;;58.60;22.37;;;2.60;99.90;;;;;;5046035;28;20342;-86
2021/03/02 01:31:08;;;;;;;43.37;18.07;;;2.70;99.90;;;;;;5073273;28;20210;-85
2021/03/02 01:33:34;;;;;;;62.67;25.10;;;3.40;99.90;;;;;;5072891;28;20179;-85
2021/03/02 01:35:59;;;;;;;65.63;25.30;;;2.60;99.90;;;;;;5055319;28;20184;-86
2021/03/02 01:38:25;;;;;;;65.90;25.50;;;4.10;99.90;;;;;;5055416;28;20192;-86
2021/03/02 01:40:51;;;;;;;57.30;22.97;;;2.60;99.90;;;;;;5072697;28;20195;-86
2021/03/02 01:43:16;;;;;;;62.53;21.77;;;2.60;99.90;;;;;;5073292;28;20299;-85
2021/03/02 01:45:42;;;;;;;64.37;25.30;;;3.20;99.90;;;;;;5072647;28;20187;-85
2021/03/02 01:48:08;;;;;;;62.80;24.60;;;3.20;99.90;;;;;;5071524;28;20193;-85
2021/03/02 01:50:34;;;;;;;54.33;20.17;;;2.50;99.90;;;;;;5071806;28;20214;-85
2021/03/02 01:52:59;;;;;;;62.57;24.03;;;2.40;99.90;;;;;;5072747;28;20488;-85
2021/03/02 01:55:26;;;;;;;67.67;22.57;;;2.90;99.90;;;;;;5073284;28;20512;-86
2021/03/02 01:57:52;;;;;;;71.07;27.00;;;4.10;99.90;;;;;;5072657;28;20175;-86
2021/03/02 02:00:22;;;;;;;66.60;25.33;;;2.40;99.90;;;;;;5071650;28;20198;-85
2021/03/02 02:03:08;;;;;;;61.90;25.47;;;2.40;99.90;;;;;;5072849;28;20257;-85
2021/03/02 02:05:39;;;;;;;55.90;21.03;;;2.40;99.90;;;;;;5071752;28;20562;-85
2021/03/02 02:08:07;;;;;;;70.77;26.57;;;2.40;99.90;;;;;;5072741;28;20170;-85
2021/03/02 02:10:41;;;;;;;62.87;23.80;;;2.40;99.90;;;;;;5071495;28;20207;-85
2021/03/02 02:13:41;;;;;;;65.47;24.83;;;2.40;99.90;;;;;;5072654;28;20234;-85
2021/03/02 02:16:09;;;;;;;66.87;24.33;;;2.30;99.90;;;;;;5072959;28;20186;-85
2021/03/02 02:18:37;;;;;;;66.40;24.43;;;3.90;99.90;;;;;;5072577;28;20176;-85
2021/03/02 02:21:05;;;;;;;65.27;24.97;;;4.00;99.90;;;;;;5072597;28;20189;-85
2021/03/02 02:23:46;;;;;;;77.57;26.73;;;2.40;99.90;;;;;;5071169;28;20187;-85
2021/03/02 02:26:40;;;;;;;72.93;26.57;;;2.40;99.90;;;;;;5071389;28;20218;-85
2021/03/02 02:29:08;;;;;;;72.93;27.83;;;2.30;99.90;;;;;;5071607;28;20309;-85
2021/03/02 02:31:37;;;;;;;61.63;23.40;;;2.40;99.90;;;;;;5072220;28;20574;-85
2021/03/02 02:34:04;;;;;;;75.03;26.83;;;3.30;99.90;;;;;;5072469;28;20181;-85
2021/03/02 02:36:31;;;;;;;77.20;26.50;;;4.10;99.90;;;;;;5072610;28;20179;-85
2021/03/02 02:38:59;;;;;;;63.83;25.50;;;3.40;99.90;;;;;;5072237;28;20175;-85
2021/03/02 02:41:27;;;;;;;72.73;26.43;;;2.70;99.90;;;;;;5072149;28;20541;-85
2021/03/02 02:43:54;;;;;;;82.47;28.10;;;4.20;99.90;;;;;;5072457;28;20222;-85
2021/03/02 02:46:21;;;;;;;70.83;26.27;;;3.50;99.90;;;;;;5076039;28;20202;-85
2021/03/02 02:48:51;;;;;;;67.57;25.43;;;3.30;99.90;;;;;;5075914;28;20175;-85
2021/03/02 02:51:17;;;;;;;65.40;26.50;;;2.60;99.90;;;;;;5074828;28;20272;-85
2021/03/02 02:53:43;;;;;;;70.23;23.87;;;2.30;99.90;;;;;;5075711;28;20640;-85
2021/03/02 02:56:11;;;;;;;66.17;24.43;;;4.00;99.90;;;;;;5074934;28;20178;-85
2021/03/02 02:58:53;;;;;;;56.23;21.60;;;2.40;99.90;;;;;;5075845;28;20179;-85
2021/03/02 03:01:20;;;;;;;70.53;26.53;;;2.40;99.90;;;;;;5075844;28;20231;-85
2021/03/02 03:03:47;;;;;;;66.53;25.13;;;2.50;99.90;;;;;;5075561;28;20183;-85
2021/03/02 03:06:16;;;;;;;50.67;19.93;;;2.80;99.90;;;;;;5074431;28;20183;-85
2021/03/02 03:08:50;;;;;;;67.07;24.80;;;3.90;99.90;;;;;;5075711;28;20317;-86
2021/03/02 03:11:24;;;;;;;73.47;24.70;;;2.30;99.90;;;;;;5075641;28;20214;-86
2021/03/02 03:13:52;;;;;;;62.67;23.07;;;2.30;99.90;;;;;;5074339;28;20514;-85
2021/03/02 03:16:21;;;;;;;35.70;14.27;;;2.30;99.90;;;;;;5075603;28;20221;-85
2021/03/02 03:18:52;;;;;;;41.67;15.17;;;3.30;99.90;;;;;;5075400;28;20214;-85
2021/03/02 03:21:18;;;;;;;65.47;24.87;;;2.50;99.90;;;;;;5075502;28;20182;-85
2021/03/02 03:23:46;;;;;;;60.50;23.23;;;3.10;99.90;;;;;;5075448;28;20179;-85
2021/03/02 03:26:14;;;;;;;71.73;25.53;;;2.40;99.90;;;;;;5074128;28;20201;-84
2021/03/02 03:28:41;;;;;;;42.00;15.93;;;4.10;99.90;;;;;;5068442;28;20224;-85
2021/03/02 03:31:10;;;;;;;64.33;25.60;;;3.30;99.90;;;;;;5055211;28;20626;-85
2021/03/02 03:33:37;;;;;;;66.53;25.97;;;2.30;99.90;;;;;;5055336;28;20202;-85
2021/03/02 03:36:03;;;;;;;70.70;27.60;;;3.30;99.90;;;;;;5037272;28;20200;-84
2021/03/02 03:38:29;;;;;;;73.13;29.03;;;2.40;99.90;;;;;;5037517;28;20208;-85
2021/03/02 03:40:55;;;;;;;65.23;25.43;;;2.30;99.90;;;;;;5020785;28;20671;-85
2021/03/02 03:43:20;;;;;;;71.30;26.67;;;2.90;99.90;;;;;;5037497;28;20206;-85
2021/03/02 03:45:46;;;;;;;68.37;27.70;;;2.40;99.90;;;;;;5020726;28;20183;-85
2021/03/02 03:48:12;;;;;;;78.03;28.57;;;2.50;99.90;;;;;;5054719;28;20625;-85
2021/03/02 03:50:38;;;;;;;68.77;27.50;;;2.40;99.90;;;;;;5037313;28;20692;-85
2021/03/02 03:53:06;;;;;;;44.10;18.77;;;2.60;99.90;;;;;;5054603;28;20180;-86
2021/03/02 03:55:40;;;;;;;66.03;26.43;;;4.20;99.90;;;;;;5054527;28;20190;-85
2021/03/02 03:58:09;;;;;;;71.97;27.70;;;3.20;99.90;;;;;;5054567;28;20172;-84
2021/03/02 04:00:35;;;;;;;67.57;28.53;;;2.50;99.90;;;;;;5055083;28;20190;-84
2021/03/02 04:03:02;;;;;;;59.77;24.00;;;4.00;99.90;;;;;;5036628;28;20184;-84
2021/03/02 04:05:28;;;;;;;64.10;25.27;;;2.50;99.90;;;;;;5037009;28;20267;-85
2021/03/02 04:07:54;;;;;;;70.83;28.23;;;2.50;99.90;;;;;;5036345;28;20184;-85
2021/03/02 04:10:20;;;;;;;61.37;25.57;;;3.50;99.90;;;;;;5054642;28;20214;-85
2021/03/02 04:12:47;;;;;;;50.60;18.97;;;2.50;99.90;;;;;;5054437;28;20667;-85
2021/03/02 04:15:15;;;;;;;63.30;24.43;;;4.00;99.90;;;;;;5036914;28;20176;-85
2021/03/02 04:17:49;;;;;;;65.03;25.17;;;2.50;99.90;;;;;;5054447;28;20195;-86
2021/03/02 04:20:15;;;;;;;55.37;21.77;;;2.50;99.90;;;;;;5036460;28;20535;-88
2021/03/02 04:22:41;;;;;;;50.87;21.37;;;2.50;99.90;;;;;;5020185;28;20180;-86
2021/03/02 04:25:07;;;;;;;55.63;23.90;;;2.60;99.90;;;;;;5054199;28;20200;-85
2021/03/02 04:27:33;;;;;;;56.80;22.20;;;2.40;99.90;;;;;;5018896;28;20536;-86
2021/03/02 04:29:59;;;;;;;57.70;22.90;;;2.90;99.90;;;;;;5053881;28;20228;-86
2021/03/02 04:32:25;;;;;;;60.43;24.20;;;3.10;99.90;;;;;;5053929;28;20269;-86
2021/03/02 04:34:50;;;;;;;60.10;23.27;;;3.30;99.90;;;;;;5036503;28;20243;-85
2021/03/02 04:37:16;;;;;;;55.43;21.27;;;4.30;99.90;;;;;;5036337;28;20187;-85
2021/03/02 04:39:42;;;;;;;57.30;21.37;;;3.40;99.90;;;;;;5054023;28;20190;-84
2021/03/02 04:42:08;;;;;;;56.03;22.77;;;2.30;99.90;;;;;;5053644;28;20549;-85
2021/03/02 04:44:34;;;;;;;62.47;23.63;;;2.30;99.90;;;;;;5019888;28;20548;-85
2021/03/02 04:46:59;;;;;;;55.87;18.47;;;3.50;99.90;;;;;;5053753;28;20184;-85
2021/03/02 04:49:25;;;;;;;48.80;20.80;;;2.80;99.90;;;;;;5053673;28;20192;-84
2021/03/02 04:51:51;;;;;;;52.30;22.60;;;3.60;99.90;;;;;;5053823;28;20253;-85
2021/03/02 04:54:17;;;;;;;49.10;20.47;;;3.20;99.90;;;;;;5053433;28;20718;-85
2021/03/02 04:56:42;;;;;;;49.60;19.67;;;2.60;99.90;;;;;;5053830;28;20175;-85
2021/03/02 04:59:08;;;;;;;58.53;24.60;;;2.40;99.90;;;;;;5035687;28;20184;-85
2021/03/02 05:01:34;;;;;;;54.23;22.40;;;2.30;99.90;;;;;;5053495;28;20195;-85
2021/03/02 05:04:00;;;;;;;48.53;21.97;;;2.20;99.90;;;;;;5053315;28;20183;-85
2021/03/02 05:06:26;;;;;;;49.00;20.47;;;2.10;99.90;;;;;;5019311;28;20184;-85
2021/03/02 05:08:52;;;;;;;54.90;19.73;;;2.10;99.90;;;;;;5052818;28;20701;-86
2021/03/02 05:11:18;;;;;;;59.73;22.00;;;2.30;99.90;;;;;;5035453;28;20311;-85
2021/03/02 05:13:44;;;;;;;50.73;19.37;;;2.10;99.90;;;;;;5053470;28;20188;-86
2021/03/02 05:16:11;;;;;;;41.70;16.23;;;2.10;99.90;;;;;;5053175;28;20180;-85
2021/03/02 05:18:36;;;;;;;49.67;21.17;;;3.70;99.90;;;;;;5053151;28;20214;-85
2021/03/02 05:21:03;;;;;;;55.03;21.57;;;2.00;99.90;;;;;;5035266;28;20211;-86
2021/03/02 05:23:28;;;;;;;54.77;21.47;;;2.00;99.90;;;;;;5053263;28;20188;-86
2021/03/02 05:25:54;;;;;;;55.10;21.27;;;4.10;99.90;;;;;;5034548;28;20218;-86
2021/03/02 05:28:20;;;;;;;52.97;19.60;;;2.00;99.90;;;;;;5038141;28;20313;-86
2021/03/02 05:30:45;;;;;;;51.70;20.83;;;2.00;99.90;;;;;;5061521;28;20227;-86
2021/03/02 05:33:11;;;;;;;65.93;23.57;;;3.80;99.90;;;;;;5059805;28;20187;-86
2021/03/02 05:35:36;;;;;;;60.03;21.83;;;3.50;99.90;;;;;;5067860;28;20339;-86
2021/03/02 05:38:02;;;;;;;56.90;20.83;;;3.40;99.90;;;;;;5070957;28;20195;-86
2021/03/02 05:40:28;;;;;;;48.27;19.00;;;3.90;99.90;;;;;;5068188;28;20194;-87
2021/03/02 05:42:54;;;;;;;50.13;20.47;;;2.00;99.90;;;;;;5069984;28;20188;-86
2021/03/02 05:45:20;;;;;;;56.10;22.97;;;2.70;99.90;;;;;;5050907;28;20246;-86
2021/03/02 05:47:47;;;;;;;49.07;20.90;;;2.00;99.90;;;;;;5050952;28;20607;-85
2021/03/02 05:50:14;;;;;;;54.57;22.63;;;2.00;99.90;;;;;;5050463;28;20282;-87
2021/03/02 05:52:40;;;;;;;60.43;23.60;;;2.10;99.90;;;;;;5050048;28;20236;-86
2021/03/02 05:55:07;;;;;;;57.47;23.27;;;2.10;99.90;;;;;;5054282;28;20183;-86
2021/03/02 05:57:33;;;;;;;53.90;21.07;;;2.10;99.90;;;;;;5049528;28;20188;-86
2021/03/02 06:00:00;;;;;;;63.77;23.33;;;3.00;99.90;;;;;;5067761;28;20262;-86
2021/03/02 06:02:26;;;;;;;64.73;23.23;;;2.80;99.90;;;;;;5051549;28;20187;-86
2021/03/02 06:04:52;;;;;;;61.00;22.40;;;2.20;99.90;;;;;;5051158;28;20202;-85
2021/03/02 06:07:17;;;;;;;69.60;27.83;;;2.10;99.90;;;;;;5049620;28;20184;-86
2021/03/02 06:09:44;;;;;;;53.37;21.13;;;2.10;99.90;;;;;;5052140;28;20210;-85
2021/03/02 06:12:11;;;;;;;54.23;19.93;;;2.10;99.90;;;;;;5048665;28;20302;-85
2021/03/02 06:14:37;;;;;;;58.93;22.87;;;2.30;99.90;;;;;;5060001;28;20176;-85
2021/03/02 06:17:05;;;;;;;59.13;23.23;;;2.10;99.90;;;;;;5053565;28;20682;-86
2021/03/02 06:19:44;;;;;;;58.67;22.13;;;2.10;99.90;;;;;;5054918;28;20796;-87
2021/03/02 06:22:36;;;;;;;53.60;23.07;;;2.10;99.90;;;;;;5059505;28;20266;-86
2021/03/02 06:25:04;;;;;;;59.10;21.17;;;2.20;99.90;;;;;;5054053;28;20188;-87
2021/03/02 06:27:31;;;;;;;53.87;19.87;;;2.20;99.90;;;;;;5054516;28;20271;-89
2021/03/02 06:30:07;;;;;;;53.47;21.67;;;2.50;99.90;;;;;;5049268;28;20323;-90
2021/03/02 06:32:40;;;;;;;60.63;23.83;;;2.20;99.90;;;;;;5019955;28;20338;-89
2021/03/02 06:35:08;;;;;;;55.33;23.33;;;2.10;99.90;;;;;;5034499;28;20181;-87
2021/03/02 06:37:45;;;;;;;55.07;20.23;;;2.10;99.90;;;;;;5016193;28;20271;-87
2021/03/02 06:40:13;;;;;;;33.03;11.20;;;2.30;99.90;;;;;;5040282;28;20266;-86
2021/03/02 06:42:42;;;;;;;60.13;22.80;;;2.20;99.90;;;;;;5033758;28;20274;-86
2021/03/02 06:45:10;;;;;;;57.73;21.93;;;2.20;99.90;;;;;;5051197;28;20192;-85
2021/03/02 06:47:43;;;;;;;56.20;20.60;;;2.10;99.90;;;;;;5034042;28;20660;-87
2021/03/02 06:50:12;;;;;;;59.47;22.73;;;2.20;99.90;;;;;;5033810;28;20307;-86
2021/03/02 06:52:43;;;;;;;59.23;22.57;;;2.30;99.90;;;;;;5032414;28;20202;-87
2021/03/02 06:55:28;;;;;;;54.57;22.17;;;2.30;99.90;;;;;;5034762;28;20196;-90
2021/03/02 06:58:17;;;;;;;53.93;24.23;;;2.40;99.90;;;;;;5050364;28;20275;-87
2021/03/02 07:00:50;;;;;;;50.17;20.70;;;3.30;99.90;;;;;;5029497;28;20184;-86
2021/03/02 07:03:36;;;;;;;47.87;19.77;;;3.50;99.90;;;;;;5032785;28;20589;-88
2021/03/02 07:06:07;;;;;;;60.47;23.30;;;2.50;99.90;;;;;;5033164;28;20772;-88
2021/03/02 07:08:34;;;;;;;57.70;22.83;;;2.50;99.90;;;;;;5048473;28;20190;-87
2021/03/02 07:11:02;;;;;;;51.23;22.30;;;3.50;99.90;;;;;;5043770;28;20204;-87
2021/03/02 07:13:32;;;;;;;56.63;21.80;;;5.60;99.90;;;;;;5029896;28;20230;-88
2021/03/02 07:15:58;;;;;;;43.60;17.47;;;4.00;99.90;;;;;;5024174;28;20268;-88
2021/03/02 07:18:28;;;;;;;49.97;20.40;;;2.50;99.90;;;;;;5033768;28;20177;-88
2021/03/02 07:21:00;;;;;;;27.83;12.97;;;2.60;99.90;;;;;;5000444;28;20644;-87
2021/03/02 07:23:29;;;;;;;59.40;22.10;;;2.50;99.90;;;;;;5017416;28;20260;-87
2021/03/02 07:25:56;;;;;;;26.80;11.47;;;2.50;99.90;;;;;;5001321;28;20199;-88
2021/03/02 07:28:25;;;;;;;51.40;20.80;;;2.50;99.90;;;;;;5022322;28;20266;-90
2021/03/02 07:30:52;;;;;;;59.07;23.30;;;3.80;99.90;;;;;;5052842;28;20257;-87
2021/03/02 07:33:18;;;;;;;49.73;20.60;;;0.20;99.90;;;;;;5055182;28;20259;-87
2021/03/02 07:35:47;;;;;;;49.33;21.30;;;3.10;99.90;;;;;;5053363;28;20194;-87
2021/03/02 07:38:21;;;;;;;48.53;17.63;;;2.90;99.90;;;;;;5057311;28;20192;-88
2021/03/02 07:40:53;;;;;;;47.97;18.63;;;2.60;99.90;;;;;;5053410;28;20640;-88
2021/03/02 07:43:23;;;;;;;56.60;20.33;;;2.60;99.90;;;;;;5055502;28;20191;-89
2021/03/02 07:45:49;;;;;;;22.80;10.37;;;2.70;99.90;;;;;;5058241;28;20188;-88
2021/03/02 07:48:27;;;;;;;57.47;22.43;;;4.00;99.90;;;;;;5048375;28;20187;-89
2021/03/02 07:51:13;;;;;;;54.90;21.93;;;2.80;99.90;;;;;;5063787;28;20203;-87
2021/03/02 07:53:39;;;;;;;52.57;20.80;;;2.70;99.90;;;;;;5063409;28;20688;-86
2021/03/02 07:56:15;;;;;;;42.57;16.87;;;3.90;99.90;;;;;;5064470;28;20188;-87
2021/03/02 07:58:41;;;;;;;40.57;16.83;;;2.70;99.90;;;;;;5062149;28;20542;-86
2021/03/02 08:01:21;;;;;;;51.13;20.37;;;2.80;99.90;;;;;;5047816;28;20184;-88
2021/03/02 08:03:47;;;;;;;52.53;20.03;;;4.60;99.90;;;;;;5064314;28;20172;-86
2021/03/02 08:06:21;;;;;;;51.20;21.83;;;3.10;99.90;;;;;;5063097;28;20671;-87
2021/03/02 08:08:48;;;;;;;43.40;18.40;;;3.90;99.90;;;;;;5068538;28;20184;-86
2021/03/02 08:11:32;;;;;;;37.97;14.63;;;3.20;99.90;;;;;;5074327;28;20325;-87
2021/03/02 08:13:59;;;;;;;58.43;20.87;;;3.80;99.90;;;;;;5065477;28;20232;-87
2021/03/02 08:17:03;;;;;;;38.27;17.13;;;3.40;99.90;;;;;;5063115;28;20175;-86
2021/03/02 08:19:36;;;;;;;54.33;23.40;;;3.50;99.90;;;;;;5063345;28;20642;-87
2021/03/02 08:22:03;;;;;;;29.40;12.13;;;3.40;99.90;;;;;;5062550;28;20244;-86
2021/03/02 08:24:51;;;;;;;49.63;21.87;;;3.50;99.90;;;;;;5063952;28;20184;-89
2021/03/02 08:27:44;;;;;;;48.57;19.93;;;3.40;99.90;;;;;;5063251;28;20180;-86
2021/03/02 08:30:13;;;;;;;38.57;18.47;;;3.50;99.90;;;;;;5052155;28;20219;-87
2021/03/02 08:32:41;;;;;;;54.63;21.10;;;3.50;99.90;;;;;;5061005;28;20199;-86
2021/03/02 08:35:37;;;;;;;55.83;21.30;;;3.60;99.90;;;;;;5063991;28;20225;-86
2021/03/02 08:38:06;;;;;;;51.17;20.30;;;3.70;99.90;;;;;;5064950;28;20656;-88
2021/03/02 08:40:31;;;;;;;47.10;16.67;;;3.80;99.90;;;;;;5054678;28;20542;-88
2021/03/02 08:43:08;;;;;;;47.97;20.43;;;3.80;99.90;;;;;;5054344;28;20313;-87
2021/03/02 08:45:44;;;;;;;40.13;17.27;;;3.70;99.90;;;;;;5052982;28;20177;-87
2021/03/02 08:48:21;;;;;;;50.13;19.27;;;3.60;99.90;;;;;;5052039;28;20186;-87
2021/03/02 08:50:55;;;;;;;49.23;21.37;;;3.80;99.90;;;;;;5050408;28;20308;-89
2021/03/02 08:53:31;;;;;;;37.77;17.53;;;3.80;99.90;;;;;;5052879;28;20257;-88
2021/03/02 08:55:58;;;;;;;43.77;16.60;;;3.90;99.90;;;;;;5050750;28;20183;-86
2021/03/02 08:58:31;;;;;;;49.20;22.07;;;4.00;99.90;;;;;;5050483;28;20176;-87
2021/03/02 09:01:08;;;;;;;49.70;21.80;;;4.00;99.90;;;;;;5051922;28;20178;-88
2021/03/02 09:03:35;;;;;;;45.10;19.30;;;4.00;99.90;;;;;;5050361;28;20553;-89
2021/03/02 09:06:17;;;;;;;52.57;21.33;;;4.60;99.90;;;;;;5051462;28;20636;-89
2021/03/02 09:08:45;;;;;;;51.03;21.53;;;4.10;99.90;;;;;;5050659;28;20179;-89
2021/03/02 09:11:11;;;;;;;46.17;21.20;;;4.10;99.90;;;;;;5053594;28;20751;-88
2021/03/02 09:13:39;;;;;;;27.83;13.10;;;4.30;99.90;;;;;;5052429;28;20207;-90
2021/03/02 09:16:28;;;;;;;51.03;21.37;;;4.40;99.90;;;;;;5052243;28;20249;-89
2021/03/02 09:19:05;;;;;;;34.77;14.50;;;4.50;99.90;;;;;;5051986;28;20596;-88
2021/03/02 09:21:33;;;;;;;49.57;20.53;;;4.50;99.90;;;;;;5053142;28;20681;-87
2021/03/02 09:24:00;;;;;;;46.97;18.97;;;4.40;99.90;;;;;;5052039;28;20585;-88
2021/03/02 09:26:27;;;;;;;47.93;20.83;;;4.50;99.90;;;;;;5052887;28;20236;-88
2021/03/02 09:28:54;;;;;;;45.13;18.47;;;4.50;99.90;;;;;;5052938;28;20297;-87
2021/03/02 09:31:20;;;;;;;26.27;13.33;;;4.70;99.90;;;;;;5051654;28;20266;-87
2021/03/02 09:33:48;;;;;;;41.57;17.37;;;4.70;99.90;;;;;;5034785;28;20213;-90
2021/03/02 09:36:14;;;;;;;44.37;18.53;;;4.60;99.90;;;;;;5052557;28;20179;-89
2021/03/02 09:38:39;;;;;;;57.47;20.70;;;4.70;99.90;;;;;;5051385;28;20245;-91
2021/03/02 09:41:05;;;;;;;42.47;18.70;;;4.70;99.90;;;;;;5052774;28;20191;-90
2021/03/02 09:43:39;;;;;;;42.83;19.40;;;4.70;99.90;;;;;;5034904;28;20696;-88
2021/03/02 09:46:06;;;;;;;50.70;21.23;;;4.80;99.90;;;;;;5056928;28;20210;-89
2021/03/02 09:48:45;;;;;;;44.80;21.20;;;5.00;99.90;;;;;;5057259;28;20561;-90
2021/03/02 09:51:33;;;;;;;48.90;20.53;;;5.20;99.90;;;;;;5052642;28;20336;-87
2021/03/02 09:54:17;;;;;;;31.60;13.10;;;5.10;99.90;;;;;;5053777;28;20176;-90
2021/03/02 09:56:45;;;;;;;38.40;17.17;;;5.40;99.90;;;;;;5043031;28;20282;-88
2021/03/02 09:59:18;;;;;;;53.50;21.87;;;5.20;99.90;;;;;;5041393;28;20237;-84
2021/03/02 10:01:44;;;;;;;49.33;20.53;;;5.20;99.90;;;;;;5060877;28;20183;-84
2021/03/02 10:04:10;;;;;;;47.53;21.93;;;5.40;99.90;;;;;;5062963;28;20509;-84
2021/03/02 10:06:36;;;;;;;37.50;17.10;;;5.50;99.90;;;;;;5067302;28;20167;-86
2021/03/02 10:09:02;;;;;;;51.93;21.70;;;5.60;99.90;;;;;;5066879;28;20221;-86
2021/03/02 10:11:30;;;;;;;51.77;21.00;;;5.70;99.90;;;;;;5065022;28;20238;-87
2021/03/02 10:13:59;;;;;;;40.90;19.43;;;5.90;99.90;;;;;;5064744;28;20171;-89
2021/03/02 10:16:30;;;;;;;43.83;19.73;;;5.90;99.90;;;;;;5072546;28;20209;-88
2021/03/02 10:19:01;;;;;;;35.33;16.47;;;5.90;99.90;;;;;;5080622;28;20167;-86
2021/03/02 10:21:48;;;;;;;39.23;15.47;;;6.10;99.90;;;;;;5074161;28;20183;-85
2021/03/02 10:24:28;;;;;;;48.23;16.07;;;6.20;99.90;;;;;;5056045;28;20188;-90
2021/03/02 10:26:55;;;;;;;43.13;20.57;;;6.10;99.90;;;;;;5058080;28;20170;-90
2021/03/02 10:29:22;;;;;;;40.20;18.37;;;6.30;99.90;;;;;;5059596;28;20745;-89
2021/03/02 10:31:49;;;;;;;36.17;16.10;;;6.80;99.90;;;;;;5065818;28;20211;-91
2021/03/02 10:34:16;;;;;;;36.90;17.13;;;6.50;99.90;;;;;;5052445;28;20183;-91
2021/03/02 10:36:44;;;;;;;46.23;19.70;;;6.60;99.90;;;;;;5061137;28;20245;-87
2021/03/02 10:39:12;;;;;;;34.57;12.87;;;6.80;99.90;;;;;;5061539;28;20183;-88
2021/03/02 10:41:38;;;;;;;43.97;19.40;;;7.00;99.90;;;;;;5061571;28;20261;-88
2021/03/02 10:44:04;;;;;;;42.90;18.57;;;7.00;99.90;;;;;;5059864;28;20244;-89
2021/03/02 10:46:31;;;;;;;46.07;21.53;;;7.00;99.90;;;;;;5056308;28;20192;-92
2021/03/02 10:48:57;;;;;;;51.27;19.83;;;7.20;99.90;;;;;;5055587;28;20633;-89
2021/03/02 10:51:23;;;;;;;49.20;20.03;;;7.40;99.90;;;;;;5050421;28;20218;-89
2021/03/02 10:53:49;;;;;;;43.20;18.80;;;7.60;99.90;;;;;;5057124;28;20184;-91
2021/03/02 10:56:18;;;;;;;45.03;19.37;;;7.60;99.90;;;;;;5052808;28;20191;-91
2021/03/02 10:58:44;;;;;;;40.90;19.53;;;7.60;99.90;;;;;;5052057;28;20176;-88
2021/03/02 11:01:11;;;;;;;39.20;17.90;;;7.60;99.90;;;;;;5051026;28;20712;-90
2021/03/02 11:03:37;;;;;;;32.97;15.73;;;7.60;99.90;;;;;;5058990;28;20184;-87
2021/03/02 11:06:03;;;;;;;40.73;18.10;;;7.50;99.90;;;;;;5063112;28;20195;-89
2021/03/02 11:08:28;;;;;;;42.17;18.47;;;7.50;99.90;;;;;;5071001;28;20180;-87
2021/03/02 11:10:54;;;;;;;41.10;19.10;;;7.70;99.90;;;;;;5075465;28;20614;-88
2021/03/02 11:13:20;;;;;;;37.00;18.43;;;7.70;99.90;;;;;;5071061;28;20642;-88
2021/03/02 11:15:46;;;;;;;43.00;19.77;;;7.80;99.90;;;;;;5071835;28;20312;-86
2021/03/02 11:18:12;;;;;;;49.50;17.77;;;7.80;99.90;;;;;;5074368;28;20176;-87
2021/03/02 11:20:39;;;;;;;36.53;16.83;;;8.10;99.90;;;;;;5075317;28;20187;-88
2021/03/02 11:23:05;;;;;;;38.13;16.80;;;8.00;99.90;;;;;;5065242;28;20187;-88
2021/03/02 11:25:31;;;;;;;46.33;19.93;;;7.90;99.90;;;;;;5065372;28;20171;-89
2021/03/02 11:27:57;;;;;;;49.33;19.43;;;8.00;99.90;;;;;;5061932;28;20179;-88
2021/03/02 11:30:23;;;;;;;46.23;19.97;;;8.10;99.90;;;;;;5022580;28;20191;-88
2021/03/02 11:32:49;;;;;;;41.57;18.50;;;8.10;99.90;;;;;;5045877;28;20210;-88
2021/03/02 11:35:16;;;;;;;45.17;16.07;;;8.30;99.90;;;;;;5020071;28;20570;-87
2021/03/02 11:37:43;;;;;;;44.03;18.93;;;8.30;99.90;;;;;;5045710;28;20172;-87
2021/03/02 11:40:12;;;;;;;41.30;18.40;;;8.20;99.90;;;;;;5044269;28;20214;-87
2021/03/02 11:42:38;;;;;;;45.47;20.00;;;8.30;99.90;;;;;;5046015;28;20176;-88
2021/03/02 11:45:09;;;;;;;45.60;18.47;;;8.20;99.90;;;;;;5031589;28;20210;-89
2021/03/02 11:47:35;;;;;;;35.40;16.57;;;8.40;99.90;;;;;;5033869;28;20246;-88
2021/03/02 11:50:01;;;;;;;40.27;18.10;;;8.50;99.90;;;;;;5028190;28;20641;-90
2021/03/02 11:52:27;;;;;;;51.20;19.77;;;8.60;99.90;;;;;;5043365;28;20216;-90
2021/03/02 11:54:53;;;;;;;52.10;20.20;;;8.50;99.90;;;;;;5026599;28;20176;-88
2021/03/02 11:57:21;;;;;;;42.90;18.10;;;8.50;99.90;;;;;;5044695;28;20648;-90
2021/03/02 11:59:47;;;;;;;40.93;19.93;;;8.50;99.90;;;;;;5033404;28;20184;-89
2021/03/02 12:02:13;;;;;;;33.57;16.50;;;8.70;99.90;;;;;;5043624;28;20212;-88
2021/03/02 12:04:40;;;;;;;40.07;18.73;;;8.80;99.90;;;;;;5025733;28;20271;-87
2021/03/02 12:07:06;;;;;;;39.77;17.43;;;8.80;99.90;;;;;;5044944;28;20241;-89
2021/03/02 12:09:32;;;;;;;44.50;18.40;;;9.00;99.90;;;;;;5024518;28;20212;-88
2021/03/02 12:11:58;;;;;;;36.03;16.47;;;9.20;99.90;;;;;;5026799;28;20239;-90
2021/03/02 12:14:32;;;;;;;47.60;19.27;;;9.30;99.90;;;;;;5028338;28;20706;-92
2021/03/02 12:16:58;;;;;;;35.83;16.07;;;9.20;99.90;;;;;;5025528;28;20175;-87
2021/03/02 12:19:24;;;;;;;38.20;18.93;;;9.10;99.90;;;;;;5027819;28;20509;-88
2021/03/02 12:21:50;;;;;;;41.83;19.60;;;9.10;99.90;;;;;;5020885;28;20191;-87
2021/03/02 12:24:16;;;;;;;42.27;17.93;;;9.10;99.90;;;;;;5021708;28;20656;-88
2021/03/02 12:26:41;;;;;;;40.17;17.93;;;9.10;99.90;;;;;;5051219;28;20175;-89
2021/03/02 12:29:07;;;;;;;45.27;18.77;;;9.20;99.90;;;;;;5046185;28;20223;-88
2021/03/02 12:31:34;;;;;;;42.17;18.80;;;9.40;99.90;;;;;;5014728;28;20677;-86
2021/03/02 12:34:00;;;;;;;39.77;17.67;;;9.70;99.90;;;;;;5017416;28;20192;-88
2021/03/02 12:36:26;;;;;;;39.70;18.33;;;9.90;99.90;;;;;;5042744;28;20175;-88
2021/03/02 12:38:51;;;;;;;38.50;18.53;;;10.00;97.90;;;;;;5044506;28;20586;-87
2021/03/02 12:41:17;;;;;;;38.10;17.73;;;10.00;98.10;;;;;;5023835;28;20227;-87
2021/03/02 12:43:43;;;;;;;38.90;17.93;;;10.10;98.20;;;;;;5024281;28;20192;-89